createdAt,value
2023-05-02T00:00:10.561Z,37.15
2023-05-02T00:01:10.559Z,37.12
2023-05-02T00:02:10.696Z,37.16
2023-05-02T00:03:10.709Z,37.15
2023-05-02T00:04:10.786Z,37.13
2023-05-02T00:05:10.758Z,37.11
2023-05-02T00:06:10.840Z,37.15
2023-05-02T00:07:10.817Z,37.10
2023-05-02T00:08:10.881Z,37.13
2023-05-02T00:09:10.933Z,37.10
2023-05-02T00:10:10.928Z,37.12
2023-05-02T00:11:10.995Z,37.11
2023-05-02T00:12:11.059Z,37.11
2023-05-02T00:13:11.090Z,37.12
2023-05-02T00:14:11.098Z,37.13
2023-05-02T00:15:11.146Z,37.13
2023-05-02T00:16:11.225Z,37.13
2023-05-02T00:17:11.348Z,37.12
2023-05-02T00:18:11.311Z,37.12
2023-05-02T00:19:11.311Z,37.10
2023-05-02T00:20:11.347Z,37.11
2023-05-02T00:21:11.405Z,37.09
2023-05-02T00:22:11.443Z,37.14
2023-05-02T00:23:11.459Z,37.13
2023-05-02T00:24:11.518Z,37.11
2023-05-02T00:25:11.577Z,37.11
2023-05-02T00:26:11.617Z,37.08
2023-05-02T00:27:11.652Z,37.10
2023-05-02T00:28:11.654Z,37.11
2023-05-02T00:29:11.746Z,37.11
2023-05-02T00:30:11.738Z,37.08
2023-05-02T00:31:11.885Z,37.10
2023-05-02T00:32:11.821Z,37.12
2023-05-02T00:33:11.899Z,37.11
2023-05-02T00:34:11.885Z,37.11
2023-05-02T00:35:11.962Z,37.09
2023-05-02T00:36:11.986Z,37.10
2023-05-02T00:37:12.036Z,37.12
2023-05-02T00:38:12.053Z,37.09
2023-05-02T00:39:12.159Z,37.11
2023-05-02T00:40:12.159Z,37.10
2023-05-02T00:41:12.212Z,37.11
2023-05-02T00:42:12.287Z,37.10
2023-05-02T00:43:12.328Z,37.08
2023-05-02T00:44:12.344Z,37.10
2023-05-02T00:45:12.346Z,37.10
2023-05-02T00:46:12.625Z,37.06
2023-05-02T00:47:12.454Z,37.11
2023-05-02T00:48:12.543Z,37.08
2023-05-02T00:49:12.537Z,37.12
2023-05-02T00:50:12.602Z,37.09
2023-05-02T00:51:12.673Z,37.09
2023-05-02T00:52:12.688Z,37.06
2023-05-02T00:53:12.735Z,37.11
2023-05-02T00:54:12.744Z,37.10
2023-05-02T00:55:12.805Z,37.06
2023-05-02T00:56:12.974Z,37.09
2023-05-02T00:57:12.891Z,37.07
2023-05-02T00:58:12.903Z,37.06
2023-05-02T00:59:12.960Z,37.06
2023-05-02T01:00:13.045Z,37.07
2023-05-02T01:01:13.118Z,37.10
2023-05-02T01:02:13.213Z,37.08
2023-05-02T01:03:13.293Z,37.13
2023-05-02T01:04:13.406Z,37.13
2023-05-02T01:05:13.285Z,37.09
2023-05-02T01:06:13.329Z,37.10
2023-05-02T01:07:13.364Z,37.08
2023-05-02T01:08:13.440Z,37.08
2023-05-02T01:09:13.449Z,37.08
2023-05-02T01:10:13.526Z,37.09
2023-05-02T01:11:13.567Z,37.06
2023-05-02T01:12:13.620Z,37.09
2023-05-02T01:13:13.631Z,37.09
2023-05-02T01:14:13.684Z,37.09
2023-05-02T01:15:13.756Z,37.07
2023-05-02T01:16:13.830Z,37.09
2023-05-02T01:17:13.798Z,37.10
2023-05-02T01:18:13.983Z,37.07
2023-05-02T01:19:13.898Z,37.07
2023-05-02T01:20:13.923Z,37.08
2023-05-02T01:21:14.005Z,37.10
2023-05-02T01:22:14.035Z,37.09
2023-05-02T01:23:14.115Z,37.09
2023-05-02T01:24:14.139Z,37.08
2023-05-02T01:25:14.236Z,37.08
2023-05-02T01:26:14.219Z,37.07
2023-05-02T01:27:14.273Z,37.10
2023-05-02T01:28:14.350Z,37.08
2023-05-02T01:29:14.339Z,37.11
2023-05-02T01:30:14.402Z,37.09
2023-05-02T01:31:14.488Z,37.09
2023-05-02T01:32:14.481Z,37.06
2023-05-02T01:33:14.570Z,37.09
2023-05-02T01:34:14.582Z,37.07
2023-05-02T01:35:14.611Z,37.10
2023-05-02T01:36:14.657Z,37.08
2023-05-02T01:37:14.733Z,37.08
2023-05-02T01:38:14.748Z,37.09
2023-05-02T01:39:14.846Z,37.09
2023-05-02T01:40:14.903Z,37.09
2023-05-02T01:41:14.893Z,37.08
2023-05-02T01:42:14.984Z,37.06
2023-05-02T01:43:15.000Z,37.06
2023-05-02T01:44:15.069Z,37.09
2023-05-02T01:45:15.129Z,37.09
2023-05-02T01:46:15.187Z,37.11
2023-05-02T01:47:15.332Z,37.09
2023-05-02T01:48:15.232Z,37.10
2023-05-02T01:49:15.321Z,37.07
2023-05-02T01:50:15.359Z,37.06
2023-05-02T01:51:15.369Z,37.08
2023-05-02T01:52:15.443Z,37.08
2023-05-02T01:53:15.490Z,37.06
2023-05-02T01:54:15.491Z,37.09
2023-05-02T01:55:15.569Z,37.07
2023-05-02T01:56:15.612Z,37.05
2023-05-02T01:57:15.682Z,37.07
2023-05-02T01:58:15.708Z,37.03
2023-05-02T01:59:15.724Z,37.07
2023-05-02T02:00:15.815Z,37.06
2023-05-02T02:01:15.887Z,37.05
2023-05-02T02:02:15.892Z,37.09
2023-05-02T02:03:16.021Z,37.08
2023-05-02T02:04:16.042Z,37.04
2023-05-02T02:05:16.046Z,37.08
2023-05-02T02:06:16.212Z,37.06
2023-05-02T02:07:16.099Z,37.06
2023-05-02T02:08:16.213Z,37.05
2023-05-02T02:09:16.271Z,37.04
2023-05-02T02:10:16.285Z,37.06
2023-05-02T02:11:16.322Z,37.07
2023-05-02T02:12:16.413Z,37.07
2023-05-02T02:13:16.449Z,37.07
2023-05-02T02:14:16.531Z,37.06
2023-05-02T02:15:16.574Z,37.07
2023-05-02T02:16:16.648Z,37.05
2023-05-02T02:17:16.665Z,37.10
2023-05-02T02:18:16.673Z,37.05
2023-05-02T02:19:16.730Z,37.07
2023-05-02T02:20:16.791Z,37.07
2023-05-02T02:21:16.876Z,37.07
2023-05-02T02:22:16.912Z,37.07
2023-05-02T02:23:16.996Z,37.05
2023-05-02T02:24:17.126Z,37.08
2023-05-02T02:25:17.069Z,37.09
2023-05-02T02:26:17.115Z,37.06
2023-05-02T02:27:17.198Z,37.08
2023-05-02T02:28:17.263Z,37.06
2023-05-02T02:29:17.278Z,37.07
2023-05-02T02:30:17.371Z,37.07
2023-05-02T02:31:17.487Z,37.06
2023-05-02T02:32:17.477Z,37.09
2023-05-02T02:33:17.510Z,37.05
2023-05-02T02:34:17.591Z,37.06
2023-05-02T02:35:17.621Z,37.06
2023-05-02T02:36:17.689Z,37.06
2023-05-02T02:37:17.749Z,37.08
2023-05-02T02:38:17.805Z,37.06
2023-05-02T02:39:17.869Z,37.05
2023-05-02T02:40:17.924Z,37.06
2023-05-02T02:41:17.943Z,37.07
2023-05-02T02:42:18.032Z,37.05
2023-05-02T02:43:18.101Z,37.08
2023-05-02T02:44:18.126Z,37.09
2023-05-02T02:45:18.225Z,37.05
2023-05-02T02:46:18.287Z,37.07
2023-05-02T02:47:18.321Z,37.06
2023-05-02T02:48:18.454Z,37.04
2023-05-02T02:49:18.393Z,37.06
2023-05-02T02:50:18.503Z,37.07
2023-05-02T02:51:18.510Z,37.07
2023-05-02T02:52:18.550Z,37.06
2023-05-02T02:53:18.586Z,37.05
2023-05-02T02:54:26.542Z,37.06
2023-05-02T02:55:19.709Z,37.05
2023-05-02T02:56:18.637Z,37.03
2023-05-02T02:57:18.681Z,37.03
2023-05-02T02:58:18.602Z,37.07
2023-05-02T02:59:18.663Z,37.06
2023-05-02T03:00:18.681Z,37.06
2023-05-02T03:01:18.630Z,37.07
2023-05-02T03:02:18.616Z,37.03
2023-05-02T03:03:18.740Z,37.03
2023-05-02T03:04:18.673Z,37.05
2023-05-02T03:05:18.601Z,37.04
2023-05-02T03:06:18.708Z,37.05
2023-05-02T03:07:18.718Z,37.05
2023-05-02T03:08:18.796Z,37.05
2023-05-02T03:09:18.836Z,37.05
2023-05-02T03:10:18.879Z,37.07
2023-05-02T03:11:18.896Z,37.04
2023-05-02T03:12:18.991Z,37.04
2023-05-02T03:13:19.029Z,37.06
2023-05-02T03:14:19.080Z,37.05
2023-05-02T03:15:19.131Z,37.06
2023-05-02T03:16:19.267Z,37.07
2023-05-02T03:17:19.241Z,37.03
2023-05-02T03:18:19.396Z,37.06
2023-05-02T03:19:19.348Z,37.06
2023-05-02T03:20:19.428Z,37.02
2023-05-02T03:21:19.482Z,37.04
2023-05-02T03:22:19.520Z,37.08
2023-05-02T03:23:19.591Z,37.07
2023-05-02T03:24:19.648Z,37.07
2023-05-02T03:25:19.698Z,37.07
2023-05-02T03:26:19.772Z,37.03
2023-05-02T03:27:19.815Z,37.02
2023-05-02T03:28:19.941Z,37.02
2023-05-02T03:29:19.924Z,37.02
2023-05-02T03:30:20.005Z,37.02
2023-05-02T03:31:20.081Z,37.02
2023-05-02T03:32:20.123Z,37.02
2023-05-02T03:33:20.171Z,37.01
2023-05-02T03:34:20.172Z,37.05
2023-05-02T03:35:20.286Z,37.05
2023-05-02T03:36:20.352Z,37.05
2023-05-02T03:37:20.426Z,37.06
2023-05-02T03:38:20.396Z,37.07
2023-05-02T03:39:20.513Z,37.04
2023-05-02T03:40:20.542Z,37.08
2023-05-02T03:41:20.584Z,37.04
2023-05-02T03:42:20.657Z,37.04
2023-05-02T03:43:20.686Z,37.03
2023-05-02T03:44:20.748Z,37.02
2023-05-02T03:45:20.825Z,37.04
2023-05-02T03:46:20.969Z,37.02
2023-05-02T03:47:20.909Z,37.03
2023-05-02T03:48:20.947Z,37.02
2023-05-02T03:49:21.054Z,37.07
2023-05-02T03:50:21.099Z,37.04
2023-05-02T03:51:21.164Z,37.04
2023-05-02T03:52:21.224Z,37.05
2023-05-02T03:53:21.284Z,37.06
2023-05-02T03:54:21.292Z,37.07
2023-05-02T03:55:21.343Z,37.04
2023-05-02T03:56:21.377Z,37.04
2023-05-02T03:57:21.451Z,37.02
2023-05-02T03:58:21.522Z,37.02
2023-05-02T03:59:21.574Z,37.04
2023-05-02T04:00:21.585Z,37.05
2023-05-02T04:01:21.656Z,37.04
2023-05-02T04:02:21.797Z,37.04
2023-05-02T04:03:21.850Z,37.05
2023-05-02T04:04:21.872Z,37.05
2023-05-02T04:05:21.823Z,37.05
2023-05-02T04:06:21.915Z,37.05
2023-05-02T04:07:21.938Z,37.05
2023-05-02T04:08:21.962Z,37.04
2023-05-02T04:09:22.126Z,37.05
2023-05-02T04:10:22.119Z,37.01
2023-05-02T04:11:22.168Z,37.01
2023-05-02T04:12:22.234Z,37.00
2023-05-02T04:13:22.282Z,37.02
2023-05-02T04:14:22.357Z,37.00
2023-05-02T04:15:22.376Z,36.95
2023-05-02T04:16:22.507Z,36.93
2023-05-02T04:17:22.497Z,36.95
2023-05-02T04:18:22.595Z,36.94
2023-05-02T04:19:22.659Z,36.92
2023-05-02T04:20:22.710Z,36.90
2023-05-02T04:21:22.807Z,36.89
2023-05-02T04:22:22.821Z,36.91
2023-05-02T04:23:22.940Z,36.83
2023-05-02T04:24:23.002Z,36.84
2023-05-02T04:25:23.066Z,36.82
2023-05-02T04:26:23.055Z,36.84
2023-05-02T04:27:23.102Z,36.81
2023-05-02T04:28:23.162Z,36.79
2023-05-02T04:29:23.363Z,36.80
2023-05-02T04:30:23.590Z,36.78
2023-05-02T04:31:23.524Z,36.75
2023-05-02T04:32:23.295Z,36.74
2023-05-02T04:33:23.296Z,36.75
2023-05-02T04:34:23.368Z,36.75
2023-05-02T04:35:23.426Z,36.75
2023-05-02T04:36:23.473Z,36.74
2023-05-02T04:37:23.537Z,36.73
2023-05-02T04:38:23.593Z,36.74
2023-05-02T04:39:23.659Z,36.74
2023-05-02T04:40:23.699Z,36.75
2023-05-02T04:41:23.771Z,36.77
2023-05-02T04:42:23.782Z,36.76
2023-05-02T04:43:24.715Z,36.77
2023-05-02T04:44:23.891Z,36.77
2023-05-02T04:45:23.928Z,36.76
2023-05-02T04:46:24.075Z,36.76
2023-05-02T04:47:24.109Z,36.78
2023-05-02T04:48:24.119Z,36.76
2023-05-02T04:49:24.210Z,36.77
2023-05-02T04:50:24.229Z,36.79
2023-05-02T04:51:24.344Z,36.78
2023-05-02T04:52:24.363Z,36.80
2023-05-02T04:53:24.477Z,36.80
2023-05-02T04:54:24.476Z,36.80
2023-05-02T04:55:24.550Z,36.79
2023-05-02T04:56:24.635Z,36.82
2023-05-02T04:57:24.724Z,36.81
2023-05-02T04:58:24.755Z,36.82
2023-05-02T04:59:24.773Z,36.79
2023-05-02T05:00:24.820Z,36.82
2023-05-02T05:01:24.987Z,36.82
2023-05-02T05:02:25.035Z,36.81
2023-05-02T05:03:25.153Z,36.83
2023-05-02T05:04:25.066Z,36.83
2023-05-02T05:05:25.138Z,36.84
2023-05-02T05:06:25.257Z,36.82
2023-05-02T05:07:25.273Z,36.84
2023-05-02T05:08:25.312Z,36.83
2023-05-02T05:09:25.392Z,36.82
2023-05-02T05:10:25.447Z,36.81
2023-05-02T05:11:25.469Z,36.81
2023-05-02T05:12:25.528Z,36.78
2023-05-02T05:13:25.645Z,36.77
2023-05-02T05:14:25.703Z,36.80
2023-05-02T05:15:25.742Z,36.75
2023-05-02T05:16:25.908Z,36.72
2023-05-02T05:17:25.949Z,36.74
2023-05-02T05:18:25.930Z,36.69
2023-05-02T05:19:26.008Z,36.71
2023-05-02T05:20:26.041Z,36.71
2023-05-02T05:21:26.097Z,36.71
2023-05-02T05:22:26.161Z,36.72
2023-05-02T05:23:26.212Z,36.68
2023-05-02T05:24:26.264Z,36.69
2023-05-02T05:25:26.323Z,36.69
2023-05-02T05:26:26.381Z,36.68
2023-05-02T05:27:26.441Z,36.67
2023-05-02T05:28:26.518Z,36.64
2023-05-02T05:29:26.560Z,36.66
2023-05-02T05:30:26.603Z,36.62
2023-05-02T05:31:26.711Z,36.50
2023-05-02T05:32:26.753Z,36.33
2023-05-02T05:33:26.900Z,36.51
2023-05-02T05:34:26.842Z,36.55
2023-05-02T05:35:26.849Z,36.42
2023-05-02T05:36:26.955Z,36.70
2023-05-02T05:37:26.956Z,36.57
2023-05-02T05:38:27.035Z,36.46
2023-05-02T05:39:27.063Z,36.56
2023-05-02T05:40:27.099Z,36.70
2023-05-02T05:41:27.107Z,37.01
2023-05-02T05:42:27.563Z,37.19
2023-05-02T05:43:27.247Z,37.68
2023-05-02T05:44:27.376Z,37.55
2023-05-02T05:45:27.584Z,37.79
2023-05-02T05:46:27.402Z,37.55
2023-05-02T05:47:27.449Z,37.67
2023-05-02T05:48:27.473Z,37.68
2023-05-02T05:49:27.443Z,38.12
2023-05-02T05:50:27.455Z,38.19
2023-05-02T05:51:27.454Z,38.34
2023-05-02T05:52:27.469Z,38.61
2023-05-02T05:53:27.480Z,38.80
2023-05-02T05:54:27.592Z,38.72
2023-05-02T05:55:27.586Z,38.73
2023-05-02T05:56:27.765Z,38.72
2023-05-02T05:57:27.731Z,38.82
2023-05-02T05:58:27.776Z,39.00
2023-05-02T05:59:27.841Z,39.07
2023-05-02T06:00:27.852Z,39.16
2023-05-02T06:01:27.922Z,39.23
2023-05-02T06:02:28.089Z,39.62
2023-05-02T06:03:28.080Z,39.58
2023-05-02T06:04:28.079Z,39.66
2023-05-02T06:05:28.042Z,39.62
2023-05-02T06:06:28.141Z,39.65
2023-05-02T06:07:28.088Z,39.79
2023-05-02T06:08:28.159Z,40.00
2023-05-02T06:09:28.562Z,39.84
2023-05-02T06:10:28.198Z,40.14
2023-05-02T06:11:28.246Z,40.43
2023-05-02T06:12:28.420Z,40.26
2023-05-02T06:13:28.212Z,40.53
2023-05-02T06:14:28.246Z,40.66
2023-05-02T06:15:28.241Z,40.61
2023-05-02T06:16:28.394Z,40.47
2023-05-02T06:17:28.325Z,40.76
2023-05-02T06:18:28.340Z,40.65
2023-05-02T06:19:28.346Z,40.71
2023-05-02T06:20:28.432Z,40.78
2023-05-02T06:21:28.407Z,40.70
2023-05-02T06:22:28.370Z,40.64
2023-05-02T06:23:28.403Z,40.95
2023-05-02T06:24:28.356Z,40.92
2023-05-02T06:25:28.410Z,41.00
2023-05-02T06:26:28.429Z,41.09
2023-05-02T06:27:28.591Z,40.99
2023-05-02T06:28:28.434Z,41.04
2023-05-02T06:29:28.436Z,41.05
2023-05-02T06:30:28.425Z,40.97
2023-05-02T06:31:28.473Z,41.15
2023-05-02T06:32:28.458Z,41.16
2023-05-02T06:33:28.436Z,41.16
2023-05-02T06:34:28.411Z,41.17
2023-05-02T06:35:28.441Z,41.20
2023-05-02T06:36:28.446Z,41.15
2023-05-02T06:37:28.652Z,40.08
2023-05-02T06:38:28.595Z,39.51
2023-05-02T06:39:29.190Z,39.30
2023-05-02T06:40:29.129Z,39.11
2023-05-02T06:41:29.094Z,39.13
2023-05-02T06:42:29.102Z,39.64
2023-05-02T06:43:29.191Z,40.32
2023-05-02T06:44:28.705Z,40.69
2023-05-02T06:45:28.710Z,40.59
2023-05-02T06:46:29.267Z,40.51
2023-05-02T06:47:29.193Z,40.39
2023-05-02T06:48:28.738Z,40.45
2023-05-02T06:49:28.770Z,40.39
2023-05-02T06:50:28.866Z,40.78
2023-05-02T06:51:28.899Z,40.87
2023-05-02T06:52:29.063Z,40.87
2023-05-02T06:53:30.221Z,40.70
2023-05-02T06:54:29.047Z,40.70
2023-05-02T06:55:28.989Z,40.57
2023-05-02T06:56:29.054Z,40.70
2023-05-02T06:57:28.997Z,40.76
2023-05-02T06:58:29.005Z,40.79
2023-05-02T06:59:29.050Z,40.74
2023-05-02T07:00:28.950Z,40.81
2023-05-02T07:01:29.022Z,40.85
2023-05-02T07:02:28.993Z,40.83
2023-05-02T07:03:28.941Z,40.87
2023-05-02T07:04:28.940Z,40.98
2023-05-02T07:05:28.955Z,40.92
2023-05-02T07:06:28.909Z,40.96
2023-05-02T07:07:28.926Z,40.95
2023-05-02T07:08:28.921Z,41.01
2023-05-02T07:09:28.941Z,41.04
2023-05-02T07:10:29.117Z,41.09
2023-05-02T07:11:28.935Z,41.16
2023-05-02T07:12:28.911Z,41.18
2023-05-02T07:13:28.908Z,41.18
2023-05-02T07:14:29.107Z,41.57
2023-05-02T07:15:29.180Z,41.69
2023-05-02T07:16:29.190Z,41.44
2023-05-02T07:17:29.223Z,41.74
2023-05-02T07:18:28.838Z,41.69
2023-05-02T07:19:29.151Z,41.69
2023-05-02T07:20:28.911Z,41.69
2023-05-02T07:21:29.086Z,41.66
2023-05-02T07:22:29.098Z,41.74
2023-05-02T07:23:29.111Z,41.80
2023-05-02T07:24:29.128Z,41.85
2023-05-02T07:25:29.118Z,41.94
2023-05-02T07:26:29.142Z,41.99
2023-05-02T07:27:28.786Z,42.03
2023-05-02T07:28:29.119Z,41.96
2023-05-02T07:29:28.739Z,41.97
2023-05-02T07:30:29.077Z,41.93
2023-05-02T07:31:28.787Z,41.92
2023-05-02T07:32:28.780Z,41.91
2023-05-02T07:33:28.737Z,41.64
2023-05-02T07:34:28.733Z,40.26
2023-05-02T07:35:28.790Z,39.60
2023-05-02T07:36:28.780Z,39.05
2023-05-02T07:37:28.708Z,39.13
2023-05-02T07:38:28.709Z,39.59
2023-05-02T07:39:28.707Z,39.90
2023-05-02T07:40:28.742Z,39.88
2023-05-02T07:41:28.932Z,40.08
2023-05-02T07:42:28.691Z,40.29
2023-05-02T07:43:28.701Z,40.33
2023-05-02T07:44:28.634Z,40.42
2023-05-02T07:45:36.632Z,40.44
2023-05-02T07:46:28.695Z,40.51
2023-05-02T07:47:28.820Z,40.56
2023-05-02T07:48:29.139Z,40.57
2023-05-02T07:49:28.634Z,40.68
2023-05-02T07:50:28.638Z,40.72
2023-05-02T07:51:28.690Z,40.76
2023-05-02T07:52:28.608Z,40.82
2023-05-02T07:53:28.629Z,40.87
2023-05-02T07:54:28.615Z,40.94
2023-05-02T07:55:28.601Z,40.97
2023-05-02T07:56:28.592Z,40.92
2023-05-02T07:57:28.601Z,40.93
2023-05-02T07:58:29.136Z,41.12
2023-05-02T07:59:28.609Z,41.08
2023-05-02T08:00:28.667Z,41.16
2023-05-02T08:01:28.549Z,41.22
2023-05-02T08:02:28.668Z,41.37
2023-05-02T08:03:28.776Z,41.27
2023-05-02T08:04:28.701Z,41.31
2023-05-02T08:05:28.698Z,41.02
2023-05-02T08:06:29.177Z,40.39
2023-05-02T08:07:29.177Z,39.92
2023-05-02T08:08:28.689Z,39.66
2023-05-02T08:09:28.703Z,39.50
2023-05-02T08:10:28.652Z,39.54
2023-05-02T08:11:28.698Z,39.47
2023-05-02T08:12:29.144Z,39.26
2023-05-02T08:13:28.756Z,39.84
2023-05-02T08:14:28.839Z,39.42
2023-05-02T08:15:28.847Z,39.13
2023-05-02T08:16:28.944Z,39.07
2023-05-02T08:17:29.010Z,38.83
2023-05-02T08:18:29.041Z,39.00
2023-05-02T08:19:29.123Z,38.98
2023-05-02T08:20:29.164Z,39.22
2023-05-02T08:21:29.269Z,39.42
2023-05-02T08:22:29.731Z,39.27
2023-05-02T08:23:29.328Z,38.90
2023-05-02T08:24:29.658Z,39.01
2023-05-02T08:25:29.440Z,38.82
2023-05-02T08:26:30.165Z,39.52
2023-05-02T08:27:29.626Z,39.65
2023-05-02T08:28:29.665Z,39.63
2023-05-02T08:29:30.246Z,39.04
2023-05-02T08:30:29.811Z,38.61
2023-05-02T08:31:29.801Z,38.59
2023-05-02T08:32:30.001Z,38.50
2023-05-02T08:33:29.816Z,38.31
2023-05-02T08:34:29.872Z,37.91
2023-05-02T08:35:29.944Z,37.98
2023-05-02T08:36:30.022Z,37.95
2023-05-02T08:37:29.933Z,38.55
2023-05-02T08:38:29.952Z,38.49
2023-05-02T08:39:30.030Z,38.13
2023-05-02T08:40:40.983Z,38.21
2023-05-02T08:41:30.972Z,38.66
2023-05-02T08:42:30.028Z,38.83
2023-05-02T08:43:30.195Z,38.75
2023-05-02T08:44:30.035Z,38.72
2023-05-02T08:45:29.986Z,39.07
2023-05-02T08:46:29.977Z,38.81
2023-05-02T08:47:30.002Z,38.94
2023-05-02T08:48:29.939Z,38.70
2023-05-02T08:49:29.965Z,38.78
2023-05-02T08:50:29.906Z,38.92
2023-05-02T08:51:30.011Z,39.11
2023-05-02T08:52:29.892Z,39.14
2023-05-02T08:53:30.151Z,39.32
2023-05-02T08:54:30.103Z,39.24
2023-05-02T08:55:29.994Z,39.43
2023-05-02T08:56:30.117Z,39.53
2023-05-02T08:57:30.062Z,39.53
2023-05-02T08:58:30.163Z,39.64
2023-05-02T08:59:30.095Z,39.69
2023-05-02T09:00:30.093Z,39.77
2023-05-02T09:01:30.199Z,39.76
2023-05-02T09:02:30.167Z,40.02
2023-05-02T09:03:34.774Z,40.16
2023-05-02T09:04:30.151Z,40.31
2023-05-02T09:05:30.104Z,40.39
2023-05-02T09:06:30.305Z,40.41
2023-05-02T09:07:30.249Z,40.41
2023-05-02T09:08:30.646Z,40.46
2023-05-02T09:09:30.158Z,40.43
2023-05-02T09:10:30.373Z,40.60
2023-05-02T09:11:30.062Z,40.65
2023-05-02T09:12:30.063Z,40.67
2023-05-02T09:13:30.320Z,40.85
2023-05-02T09:14:30.036Z,40.87
2023-05-02T09:15:30.038Z,40.60
2023-05-02T09:16:30.151Z,40.68
2023-05-02T09:17:30.227Z,40.84
2023-05-02T09:18:29.993Z,40.90
2023-05-02T09:19:29.973Z,40.99
2023-05-02T09:20:30.077Z,41.02
2023-05-02T09:21:30.187Z,41.05
2023-05-02T09:22:30.047Z,41.06
2023-05-02T09:23:30.036Z,41.21
2023-05-02T09:24:29.940Z,41.20
2023-05-02T09:25:29.968Z,41.35
2023-05-02T09:26:31.617Z,41.22
2023-05-02T09:27:29.969Z,41.28
2023-05-02T09:28:30.178Z,41.16
2023-05-02T09:29:30.247Z,41.13
2023-05-02T09:30:30.165Z,40.60
2023-05-02T09:31:49.845Z,39.47
2023-05-02T09:32:31.289Z,38.91
2023-05-02T09:33:29.993Z,39.02
2023-05-02T09:34:30.206Z,38.90
2023-05-02T09:35:30.172Z,39.27
2023-05-02T09:36:29.931Z,39.07
2023-05-02T09:37:29.961Z,39.19
2023-05-02T09:38:30.038Z,39.33
2023-05-02T09:39:30.010Z,40.02
2023-05-02T09:40:30.173Z,40.54
2023-05-02T09:41:30.020Z,40.67
2023-05-02T09:42:30.152Z,40.61
2023-05-02T09:43:30.157Z,40.46
2023-05-02T09:44:29.942Z,40.35
2023-05-02T09:45:30.196Z,40.33
2023-05-02T09:46:29.972Z,40.24
2023-05-02T09:47:29.913Z,40.21
2023-05-02T09:48:30.216Z,40.10
2023-05-02T09:49:29.992Z,40.06
2023-05-02T09:50:29.898Z,40.00
2023-05-02T09:51:29.889Z,39.91
2023-05-02T09:52:29.925Z,39.85
2023-05-02T09:53:29.812Z,39.84
2023-05-02T09:54:29.832Z,39.78
2023-05-02T09:55:29.910Z,39.70
2023-05-02T09:56:29.863Z,39.69
2023-05-02T09:57:29.820Z,39.63
2023-05-02T09:58:29.804Z,39.60
2023-05-02T09:59:29.783Z,39.59
2023-05-02T10:00:29.803Z,39.54
2023-05-02T10:01:29.803Z,39.54
2023-05-02T10:02:29.836Z,39.54
2023-05-02T10:03:29.782Z,39.52
2023-05-02T10:04:29.853Z,39.50
2023-05-02T10:05:30.587Z,39.49
2023-05-02T10:06:29.830Z,39.48
2023-05-02T10:07:29.886Z,39.46
2023-05-02T10:08:29.865Z,39.44
2023-05-02T10:09:29.955Z,39.48
2023-05-02T10:10:29.973Z,39.44
2023-05-02T10:11:30.015Z,39.46
2023-05-02T10:12:30.146Z,39.42
2023-05-02T10:13:30.086Z,39.42
2023-05-02T10:14:30.083Z,39.42
2023-05-02T10:15:30.096Z,39.37
2023-05-02T10:16:30.353Z,39.38
2023-05-02T10:17:30.198Z,39.38
2023-05-02T10:18:30.176Z,39.38
2023-05-02T10:19:30.163Z,39.34
2023-05-02T10:20:30.228Z,39.31
2023-05-02T10:21:30.235Z,39.32
2023-05-02T10:22:30.219Z,39.28
2023-05-02T10:23:30.286Z,39.26
2023-05-02T10:24:30.273Z,39.26
2023-05-02T10:25:30.263Z,39.25
2023-05-02T10:26:30.851Z,39.22
2023-05-02T10:27:30.794Z,39.22
2023-05-02T10:28:30.390Z,39.19
2023-05-02T10:29:30.439Z,39.18
2023-05-02T10:30:30.455Z,39.15
2023-05-02T10:31:30.607Z,39.15
2023-05-02T10:32:30.746Z,39.10
2023-05-02T10:33:30.577Z,39.09
2023-05-02T10:34:30.580Z,39.06
2023-05-02T10:35:30.633Z,39.02
2023-05-02T10:36:30.631Z,39.02
2023-05-02T10:37:30.703Z,39.00
2023-05-02T10:38:30.702Z,38.97
2023-05-02T10:39:30.827Z,38.92
2023-05-02T10:40:30.826Z,38.88
2023-05-02T10:41:30.848Z,38.87
2023-05-02T10:42:30.926Z,38.86
2023-05-02T10:43:30.941Z,38.81
2023-05-02T10:44:31.007Z,38.75
2023-05-02T10:45:31.114Z,38.76
2023-05-02T10:46:31.102Z,38.77
2023-05-02T10:47:31.466Z,38.76
2023-05-02T10:48:31.533Z,38.74
2023-05-02T10:49:31.224Z,38.77
2023-05-02T10:50:31.252Z,38.77
2023-05-02T10:51:31.354Z,38.73
2023-05-02T10:52:31.475Z,38.73
2023-05-02T10:53:31.490Z,38.73
2023-05-02T10:54:31.665Z,38.73
2023-05-02T10:55:31.592Z,38.71
2023-05-02T10:56:31.722Z,38.69
2023-05-02T10:57:31.682Z,38.67
2023-05-02T10:58:31.756Z,38.62
2023-05-02T10:59:31.821Z,38.66
2023-05-02T11:00:31.967Z,38.66
2023-05-02T11:01:32.142Z,38.64
2023-05-02T11:02:32.050Z,38.60
2023-05-02T11:03:32.017Z,38.60
2023-05-02T11:04:32.066Z,38.59
2023-05-02T11:05:32.069Z,38.59
2023-05-02T11:06:32.211Z,38.57
2023-05-02T11:07:32.287Z,38.57
2023-05-02T11:08:32.309Z,38.53
2023-05-02T11:09:32.381Z,38.50
2023-05-02T11:10:32.402Z,38.47
2023-05-02T11:11:32.467Z,38.47
2023-05-02T11:12:32.519Z,38.48
2023-05-02T11:13:32.722Z,38.48
2023-05-02T11:14:32.649Z,38.48
2023-05-02T11:15:32.649Z,38.44
2023-05-02T11:16:32.762Z,38.46
2023-05-02T11:17:32.916Z,38.45
2023-05-02T11:18:32.756Z,38.41
2023-05-02T11:19:32.811Z,38.41
2023-05-02T11:20:32.871Z,38.40
2023-05-02T11:21:33.258Z,38.38
2023-05-02T11:22:32.944Z,38.39
2023-05-02T11:23:33.216Z,38.38
2023-05-02T11:24:33.032Z,38.37
2023-05-02T11:25:33.242Z,38.36
2023-05-02T11:26:33.108Z,38.34
2023-05-02T11:27:33.131Z,38.32
2023-05-02T11:28:33.226Z,38.31
2023-05-02T11:29:33.273Z,38.33
2023-05-02T11:30:33.306Z,38.31
2023-05-02T11:31:33.296Z,38.27
2023-05-02T11:32:33.477Z,38.29
2023-05-02T11:33:33.491Z,38.29
2023-05-02T11:34:33.481Z,38.27
2023-05-02T11:35:33.561Z,38.27
2023-05-02T11:36:33.890Z,38.23
2023-05-02T11:37:33.702Z,38.22
2023-05-02T11:38:33.754Z,38.22
2023-05-02T11:39:33.819Z,38.16
2023-05-02T11:40:33.884Z,38.20
2023-05-02T11:41:33.898Z,38.18
2023-05-02T11:42:34.020Z,38.16
2023-05-02T11:43:34.058Z,38.11
2023-05-02T11:44:34.124Z,38.07
2023-05-02T11:45:34.217Z,38.10
2023-05-02T11:46:34.287Z,38.08
2023-05-02T11:47:34.301Z,38.07
2023-05-02T11:48:34.440Z,38.03
2023-05-02T11:49:34.582Z,38.03
2023-05-02T11:50:34.539Z,38.02
2023-05-02T11:51:34.578Z,37.98
2023-05-02T11:52:34.744Z,37.98
2023-05-02T11:53:34.694Z,37.99
2023-05-02T11:54:34.711Z,37.99
2023-05-02T11:55:34.762Z,37.99
2023-05-02T11:56:34.837Z,37.98
2023-05-02T11:57:34.872Z,37.95
2023-05-02T11:58:35.011Z,37.95
2023-05-02T11:59:35.040Z,37.86
2023-05-02T12:00:35.067Z,37.90
2023-05-02T12:01:35.175Z,37.94
2023-05-02T12:02:35.267Z,37.92
2023-05-02T12:03:35.289Z,37.92
2023-05-02T12:04:35.277Z,37.84
2023-05-02T12:05:35.416Z,37.89
2023-05-02T12:06:35.535Z,37.85
2023-05-02T12:07:35.478Z,37.87
2023-05-02T12:08:35.719Z,37.86
2023-05-02T12:09:35.620Z,37.79
2023-05-02T12:10:35.615Z,37.79
2023-05-02T12:11:35.699Z,37.82
2023-05-02T12:12:35.734Z,37.81
2023-05-02T12:13:35.823Z,37.80
2023-05-02T12:14:35.881Z,37.84
2023-05-02T12:15:35.941Z,37.86
2023-05-02T12:16:36.013Z,37.85
2023-05-02T12:17:36.167Z,37.82
2023-05-02T12:18:36.036Z,37.84
2023-05-02T12:19:36.144Z,37.84
2023-05-02T12:20:36.178Z,37.83
2023-05-02T12:21:36.263Z,37.84
2023-05-02T12:22:36.348Z,37.79
2023-05-02T12:23:37.558Z,37.83
2023-05-02T12:24:36.410Z,37.83
2023-05-02T12:25:36.463Z,37.82
2023-05-02T12:26:36.489Z,37.83
2023-05-02T12:27:36.534Z,37.81
2023-05-02T12:28:36.621Z,37.82
2023-05-02T12:29:36.671Z,37.82
2023-05-02T12:30:36.741Z,37.80
2023-05-02T12:31:36.828Z,37.83
2023-05-02T12:32:36.906Z,37.81
2023-05-02T12:33:36.904Z,37.84
2023-05-02T12:34:36.989Z,37.80
2023-05-02T12:35:37.021Z,37.79
2023-05-02T12:36:37.085Z,37.79
2023-05-02T12:37:37.134Z,37.81
2023-05-02T12:38:37.193Z,37.79
2023-05-02T12:39:37.268Z,37.78
2023-05-02T12:40:37.327Z,37.79
2023-05-02T12:41:37.452Z,37.78
2023-05-02T12:42:37.440Z,37.74
2023-05-02T12:43:38.210Z,37.73
2023-05-02T12:44:37.553Z,37.75
2023-05-02T12:45:37.601Z,37.74
2023-05-02T12:46:37.724Z,37.68
2023-05-02T12:47:37.855Z,37.66
2023-05-02T12:48:37.781Z,37.69
2023-05-02T12:49:37.858Z,37.69
2023-05-02T12:50:37.867Z,37.67
2023-05-02T12:51:37.952Z,37.64
2023-05-02T12:52:38.001Z,37.64